Flight Track Log - Related Links

Times and Time Zones

All times are in EDT time to prevent confusion due to time zone crossing. See the OPT332 flight status page for this flight to view local times or setup timezone preferences in your user account.

Time Position Orientation Groundspeed Altitude Reporting Facility
EDT Latitude Longitude Course Direction KTS MPH feet Rate Location/Type
Thu 12:27:16 PM 41.7500 -87.7167 148° Southeast 196 226 2,800  Level Chicago TRACON
Thu 12:28:03 PM 41.7011 -87.7017 167° South 208 239 3,100 2,037 Climbing Chicago Center
Thu 12:29:05 PM 41.6411 -87.6742 161° South 220 253 6,500 3,048 Climbing Chicago Center
Thu 12:30:07 PM 41.5722 -87.6411 160° South 258 297 9,400 2,613 Climbing Chicago Center
Thu 12:31:09 PM 41.5008 -87.6064 160° South 271 312 11,900 1,268 Climbing Chicago Center
Thu 12:32:00 PM 42.0090 -86.8240 148° Southeast  Level Estimated
Thu 12:32:10 PM 41.4103 -87.5789 167° South 337 388 12,000  Level Chicago Center
Thu 12:33:12 PM 41.3022 -87.5611 173° South 327 376 14,400 2,371 Climbing Chicago Center
Thu 12:34:14 PM 41.2144 -87.5386 169° South 324 373 16,900 2,098 Climbing Chicago Center
Thu 12:35:15 PM 41.1233 -87.5136 168° South 332 382 18,700 1,659 Climbing Chicago Center
Thu 12:36:17 PM 41.0297 -87.4886 169° South 340 391 20,300 1,935 Climbing Chicago Center
Thu 12:37:19 PM 40.9386 -87.4633 168° South 336 387 22,700 1,935 Climbing Chicago Center
Thu 12:38:21 PM 40.8481 -87.4322 165° South 337 388 24,300 1,707 Climbing Chicago Center
Thu 12:39:22 PM 40.7594 -87.3742 154° Southeast 354 407 26,200 1,854 Climbing Chicago Center
Thu 12:40:24 PM 40.6542 -87.3086 155° Southeast 351 404 28,100 1,548 Climbing Chicago Center
Thu 12:41:26 PM 40.5625 -87.2533 155° Southeast 361 415 29,400 1,452 Climbing Chicago Center
Thu 12:42:28 PM 40.4697 -87.1956 155° Southeast 369 425 31,100 1,707 Climbing Chicago Center
Thu 12:43:29 PM 40.3839 -87.1414 154° Southeast 369 425 32,900 1,707 Climbing Chicago Center
Thu 12:44:31 PM 40.3211 -87.0086 122° Southeast 369 425 34,600 1,597 Climbing Chicago Center
Thu 12:45:33 PM 40.3208 -86.8808 90° East 351 404 36,200 1,452 Climbing Chicago Center
Thu 12:46:35 PM 40.3208 -86.7511 90° East 355 409 37,600 1,306 Climbing Chicago Center
Thu 12:47:37 PM 40.3200 -86.6233 90° East 352 405 38,900 1,317 Climbing Chicago Center
Thu 12:48:38 PM 40.3203 -86.4989 90° East 344 396 40,300 927 Climbing Chicago Center
Thu 12:49:40 PM 40.3203 -86.3753 90° East 339 390 40,800 484 Climbing Chicago Center
Thu 12:50:42 PM 40.3194 -86.2458 90° East 352 405 41,300 488 Climbing Chicago Center
Thu 12:51:43 PM 40.3194 -86.1147 90° East 359 413 41,800 537 Climbing Chicago Center
Thu 12:52:45 PM 40.3172 -85.9522 91° East 368 423 42,400 522 Climbing Chicago Center
Thu 12:53:38 PM 40.3164 -85.8442 91° East 370 426 42,800 417 Climbing Indianapolis Center
Thu 12:54:40 PM 40.3264 -85.7108 84° East 370 426 43,200 339 Climbing Indianapolis Center
Thu 12:55:42 PM 40.3611 -85.5803 71° East 378 435 43,500 318 Climbing Indianapolis Center
Thu 12:56:52 PM 40.4036 -85.4225 70° East 385 443 43,900 318 Climbing Chicago Center
Thu 12:57:54 PM 40.4383 -85.2897 71° East 386 444 44,200 293 Climbing Chicago Center
Thu 12:58:55 PM 40.4728 -85.1553 71° East 391 450 44,500 310 Climbing Chicago Center
Thu 12:59:50 PM 40.5064 -85.0183 72° East 393 452 44,800 259 Climbing Indianapolis Center
Thu 01:00:51 PM 40.5422 -84.8825 71° East 398 458 45,000 98 Climbing Indianapolis Center
Thu 01:01:53 PM 40.5778 -84.7439 71° East 400 460 45,000  Level Indianapolis Center
Thu 01:02:55 PM 40.6128 -84.6039 72° East 402 463 45,000  Level Indianapolis Center
Thu 01:03:57 PM 40.6558 -84.4339 71° East 406 467 45,000  Level Indianapolis Center
Thu 01:04:59 PM 40.6908 -84.2950 72° East 402 463 45,000  Level Indianapolis Center
Thu 01:06:01 PM 40.7244 -84.1553 72° East 400 460 45,000  Level Indianapolis Center
Thu 01:07:03 PM 40.7583 -84.0161 72° East 399 459 45,000  Level Indianapolis Center
Thu 01:08:05 PM 40.7925 -83.8756 72° East 402 463 45,000  Level Indianapolis Center
Thu 01:09:07 PM 40.8267 -83.7350 72° East 401 461 45,000  Level Indianapolis Center
Thu 01:10:08 PM 40.8608 -83.5953 72° East 400 460 45,000  Level Indianapolis Center
Thu 01:10:38 PM 40.8822 -83.5103 72° East 402 463 45,000  Level Cleveland Center
Thu 01:11:39 PM 40.9161 -83.3686 72° East 403 464 45,000  Level Cleveland Center
Thu 01:12:41 PM 40.9531 -83.2289 71° East 403 464 45,000  Level Cleveland Center
Thu 01:13:43 PM 40.9900 -83.0856 71° East 403 464 45,000  Level Cleveland Center
Thu 01:14:45 PM 41.0267 -82.9444 71° East 403 464 45,000  Level Cleveland Center
Thu 01:15:47 PM 41.0697 -82.7786 71° East 404 465 45,000  Level Cleveland Center
Thu 01:16:48 PM 41.1058 -82.6361 71° East 405 466 45,000  Level Cleveland Center
Thu 01:17:50 PM 41.1425 -82.4925 71° East 407 468 45,000  Level Cleveland Center
Thu 01:18:52 PM 41.1783 -82.3481 72° East 408 470 45,000  Level Cleveland Center
Thu 01:19:54 PM 41.2142 -82.2039 72° East 408 470 45,000  Level Cleveland Center
Thu 01:20:55 PM 41.2503 -82.0589 72° East 409 471 45,000  Level Cleveland Center
Thu 01:21:57 PM 41.2864 -81.9131 72° East 411 473 45,000  Level Cleveland Center
Thu 01:22:59 PM 41.3211 -81.7728 72° East 410 472 45,000  Level Cleveland Center
Thu 01:24:01 PM 41.3608 -81.6108 72° East 415 478 45,000  Level Cleveland Center
Thu 01:25:03 PM 41.3967 -81.4631 72° East 416 479 45,000  Level Cleveland Center
Thu 01:26:04 PM 41.4311 -81.3186 72° East 408 470 45,000  Level Cleveland Center
Thu 01:27:06 PM 41.4667 -81.1708 72° East 414 476 45,000  Level Cleveland Center
Thu 01:28:08 PM 41.5008 -81.0250 73° East 409 471 45,000  Level Cleveland Center
Thu 01:29:10 PM 41.5419 -80.8517 72° East 416 479 45,000  Level Cleveland Center
Thu 01:30:12 PM 41.5772 -80.7042 72° East 414 476 45,000  Level Cleveland Center
Thu 01:31:14 PM 41.6122 -80.5561 72° East 413 475 45,000  Level Cleveland Center
Thu 01:32:16 PM 41.6461 -80.4072 73° East 416 479 45,000  Level Cleveland Center
Thu 01:33:18 PM 41.6797 -80.2583 73° East 414 476 45,000  Level Cleveland Center
Thu 01:34:20 PM 41.7147 -80.1086 73° East 417 480 45,000  Level Cleveland Center
Thu 01:35:21 PM 41.7483 -79.9606 73° East 415 478 45,000  Level Cleveland Center
Thu 01:36:23 PM 41.7831 -79.8094 73° East 419 482 45,000  Level Cleveland Center
Thu 01:37:25 PM 41.8161 -79.6594 73° East 417 480 45,000  Level Cleveland Center
Thu 01:38:27 PM 41.8506 -79.5028 74° East 416 479 45,000  Level Cleveland Center
Thu 01:39:29 PM 41.8839 -79.3536 73° East 418 481 45,000  Level Cleveland Center
Thu 01:40:31 PM 41.9228 -79.1733 74° East 421 484 45,000  Level Cleveland Center
Thu 01:41:33 PM 41.9556 -79.0244 73° East 418 481 45,000  Level Cleveland Center
Thu 01:42:35 PM 41.9869 -78.8736 74° East 419 482 45,000  Level Cleveland Center
Thu 01:43:36 PM 42.0197 -78.7239 74° East 419 482 45,000  Level Cleveland Center
Thu 01:44:38 PM 42.0517 -78.5733 74° East 420 483 45,000  Level Cleveland Center
Thu 01:45:40 PM 42.0833 -78.4225 74° East 419 482 45,000  Level Cleveland Center
Thu 01:46:42 PM 42.1211 -78.2414 74° East 421 484 45,000  Level Cleveland Center
Thu 01:47:44 PM 42.1522 -78.0950 74° East 414 476 45,000  Level Cleveland Center
Thu 01:48:46 PM 42.1836 -77.9447 74° East 418 481 45,000  Level Cleveland Center
Thu 01:49:48 PM 42.2144 -77.7933 75° East 421 484 45,000  Level Cleveland Center
Thu 01:50:50 PM 42.2453 -77.6414 75° East 423 487 45,000  Level Cleveland Center
Thu 01:51:52 PM 42.2817 -77.4592 75° East 424 488 45,000  Level Cleveland Center
Thu 01:52:53 PM 42.3122 -77.3069 75° East 425 489 45,000  Level Cleveland Center
Thu 01:53:55 PM 42.3428 -77.1544 75° East 425 489 45,000  Level Cleveland Center
Thu 01:54:58 PM 42.3725 -77.0003 75° East 427 491 45,000  Level Cleveland Center
Thu 01:55:59 PM 42.4036 -76.8469 75° East 427 491 45,000  Level Cleveland Center
Thu 01:57:01 PM 42.4392 -76.6603 75° East 429 494 45,000  Level Cleveland Center
Thu 01:58:03 PM 42.4742 -76.5086 73° East 426 490 45,000  Level Cleveland Center
Thu 01:59:05 PM 42.4983 -76.3469 78° East 429 494 45,000  Level Cleveland Center
Thu 02:00:07 PM 42.5283 -76.1917 75° East 429 494 45,000  Level Cleveland Center
Thu 02:01:09 PM 42.5569 -76.0353 76° East 429 494 45,000  Level Cleveland Center
Thu 02:02:11 PM 42.5853 -75.8772 76° East 432 497 45,000  Level Cleveland Center
Thu 02:03:13 PM 42.6142 -75.7200 76° East 433 498 45,000  Level Cleveland Center
Thu 02:04:15 PM 42.6492 -75.5333 76° East 428 493 45,000  Level Cleveland Center
Thu 02:05:17 PM 42.6772 -75.3744 76° East 432 497 45,000  Level Cleveland Center
Thu 02:06:19 PM 42.7053 -75.2164 76° East 433 498 45,000  Level Cleveland Center
Thu 02:07:21 PM 42.7333 -75.0575 76° East 435 501 45,000  Level Cleveland Center
Thu 02:08:17 PM 42.7594 -74.8947 78° East 430 495 45,000  Level Boston Center
Thu 02:09:15 PM 42.7900 -74.7375 75° East 430 495 45,000  Level Boston Center
Thu 02:10:15 PM 42.8181 -74.5772 77° East 430 495 45,000  Level Boston Center
Thu 02:11:16 PM 42.8439 -74.4167 78° East 430 495 45,000  Level Boston Center
Thu 02:12:17 PM 42.8714 -74.2589 77° East 430 495 45,000  Level Boston Center
Thu 02:13:17 PM 42.8989 -74.0981 77° East 430 495 45,000  Level Boston Center
Thu 02:14:15 PM 42.9242 -73.9400 78° East 430 495 45,000  Level Boston Center
Thu 02:15:15 PM 42.9511 -73.7789 77° East 430 495 45,000  Level Boston Center
Thu 02:16:16 PM 42.9758 -73.6178 78° East 430 495 45,000  Level Boston Center
Thu 02:17:16 PM 43.0022 -73.4592 77° East 430 495 45,000  Level Boston Center
Thu 02:18:17 PM 43.0306 -73.3150 75° East 430 495 45,000  Level Boston Center
Thu 02:19:17 PM 43.0567 -73.1561 77° East 430 495 45,000  Level Boston Center
Thu 02:20:15 PM 43.0806 -73.0142 77° East 430 495 45,000  Level Boston Center
Thu 02:21:15 PM 43.1019 -72.8381 80° East 430 495 45,000  Level Boston Center
Thu 02:22:16 PM 43.1275 -72.6733 78° East 430 495 45,000  Level Boston Center
Thu 02:23:17 PM 43.1589 -72.4969 76° East 430 495 45,000  Level Boston Center
Thu 02:24:15 PM 43.1819 -72.3347 79° East 430 495 45,000  Level Boston Center
Thu 02:25:16 PM 43.2067 -72.1694 78° East 430 495 45,000  Level Boston Center
Thu 02:26:16 PM 43.2311 -72.0069 78° East 430 495 45,000  Level Boston Center
Thu 02:27:15 PM 43.2533 -71.8442 79° East 430 495 45,000  Level Boston Center
Thu 02:28:16 PM 43.2772 -71.6814 79° East 430 495 45,000  Level Boston Center
Thu 02:29:15 PM 43.2953 -71.5500 79° East 430 495 45,000  Level Boston Center
Thu 02:30:16 PM 43.3250 -71.3756 77° East 430 495 45,000  Level Boston Center
Thu 02:31:16 PM 43.3503 -71.2125 78° East 430 495 45,000  Level Boston Center
Thu 02:32:16 PM 43.3778 -71.0519 77° East 430 495 45,000  Level Boston Center
Thu 02:33:17 PM 43.4092 -70.8939 75° East 430 495 45,000  Level Boston Center
Thu 02:34:17 PM 43.4464 -70.7386 72° East 430 495 45,000  Level Boston Center
Thu 02:35:15 PM 43.4794 -70.5775 74° East 430 495 45,000  Level Boston Center
Thu 02:36:16 PM 43.5142 -70.4189 73° East 430 495 45,000  Level Boston Center
Thu 02:37:17 PM 43.5467 -70.2631 74° East 425 489 45,000  Level Boston Center
Thu 02:38:17 PM 43.5789 -70.1014 75° East 425 489 45,000  Level Boston Center
Thu 02:39:17 PM 43.6092 -69.9453 75° East 419 482 45,000  Level Boston Center
Thu 02:40:15 PM 43.6431 -69.7889 73° East 419 482 45,000  Level Boston Center
Thu 02:41:16 PM 43.6747 -69.6325 74° East 419 482 45,000  Level Boston Center
Thu 02:42:17 PM 43.7083 -69.4758 73° East 419 482 45,000  Level Boston Center
Thu 02:43:17 PM 43.7417 -69.3161 74° East 419 482 45,000  Level Boston Center
Thu 02:44:17 PM 43.7706 -69.1592 76° East 419 482 45,000  Level Boston Center
Thu 02:45:15 PM 43.8033 -68.9992 74° East 419 482 45,000  Level Boston Center
Thu 02:46:16 PM 43.8361 -68.8419 74° East 419 482 45,000  Level Boston Center
Thu 02:47:16 PM 43.8664 -68.6844 75° East 419 482 45,000  Level Boston Center
Thu 02:48:17 PM 43.8989 -68.5297 74° East 419 482 45,000  Level Boston Center
Thu 02:49:15 PM 43.9267 -68.3722 76° East 419 482 45,000  Level Boston Center
Thu 02:50:16 PM 43.9600 -68.1967 75° East 419 482 45,000  Level Boston Center
Thu 02:51:08 PM 43.9833 -68.0500 77° East 430 495 45,000  Level Moncton Center
Thu 02:52:08 PM 44.0000 -67.9000 81° East 430 495 45,000  Level Moncton Center
Thu 02:53:08 PM 44.0333 -67.7167 76° East 430 495 45,000  Level Moncton Center
Thu 02:54:08 PM 44.0500 -67.5833 80° East 430 495 45,000  Level Moncton Center
Thu 02:55:08 PM 44.1000 -67.4000 69° East 430 495 45,000  Level Moncton Center
Thu 02:56:08 PM 44.1333 -67.2667 71° East 430 495 45,000  Level Moncton Center
Thu 02:57:08 PM 44.1500 -67.0833 83° East 430 495 45,000  Level Moncton Center
Thu 02:58:08 PM 44.1833 -66.9333 73° East 430 495 45,000  Level Moncton Center
Thu 02:59:08 PM 44.2167 -66.7833 73° East 430 495 45,000  Level Moncton Center
Thu 03:00:08 PM 44.2500 -66.6167 74° East 430 495 45,000 -150 Level Moncton Center
Thu 03:01:08 PM 44.2667 -66.4500 82° East 430 495 44,700 -1,200 Descending Moncton Center
Thu 03:02:08 PM 44.3000 -66.2667 76° East 440 506 42,600 -2,000 Descending Moncton Center
Thu 03:03:08 PM 44.3167 -66.1333 80° East 430 495 40,700 -2,000 Descending Moncton Center
Thu 03:04:08 PM 44.3667 -65.9333 71° East 420 483 38,600 -2,000 Descending Moncton Center
Thu 03:05:08 PM 44.3833 -65.8000 80° East 410 472 36,700 -2,000 Descending Moncton Center
Thu 03:06:08 PM 44.4167 -65.6667 71° East 390 449 34,600 -2,000 Descending Moncton Center
Thu 03:07:08 PM 44.4500 -65.5167 73° East 390 449 32,700 -1,950 Descending Moncton Center
Thu 03:08:08 PM 44.4833 -65.3500 74° East 420 483 30,700 -1,950 Descending Moncton Center
Thu 03:09:08 PM 44.5167 -65.2000 73° East 430 495 28,800 -2,000 Descending Moncton Center
Thu 03:10:08 PM 44.5500 -65.0333 74° East 440 506 26,700 -2,400 Descending Moncton Center
Thu 03:11:08 PM 44.5833 -64.8667 74° East 430 495 24,000 -2,800 Descending Moncton Center
Thu 03:12:08 PM 44.6167 -64.7000 74° East 430 495 21,100 -2,800 Descending Moncton Center
Thu 03:13:08 PM 44.6500 -64.5333 74° East 430 495 18,400 -2,700 Descending Moncton Center
Thu 03:14:08 PM 44.6833 -64.4000 71° East 420 483 15,700 -2,700 Descending Moncton Center
Thu 03:15:08 PM 44.7167 -64.2333 74° East 400 460 13,000 -2,550 Descending Moncton Center
Thu 03:16:08 PM 44.7333 -64.0833 81° East 390 449 10,600 -2,450 Descending Moncton Center
Thu 03:17:08 PM 44.7667 -63.9500 71° East 370 426 8,100 -2,200 Descending Moncton Center
Thu 03:18:08 PM 44.7833 -63.8333 79° East 310 357 6,200 -1,950 Descending Moncton Center
Thu 03:19:08 PM 44.7833 -63.7167 90° East 290 334 4,200 -1,800 Descending Moncton Center
Thu 03:20:08 PM 44.7833 -63.6167 90° East 270 311 2,600 -1,150 Descending Moncton Center
Thu 03:21:08 PM 44.7833 -63.5333 90° East 240 276 1,900 -300 Descending Moncton Center
Thu 03:22:08 PM 44.8000 -63.4333 77° East 180 207 2,000 -50 Climbing Moncton Center
Thu 03:23:08 PM 44.8333 -63.4000 35° Northeast 140 161 1,800 -550 Descending Moncton Center
Thu 03:24:08 PM 44.8500 -63.4500 295° West 120 138 900 -900 Descending Moncton Center

Login

Don't have an account? Register now (free) for customized features, flight alerts, and more!